sensor_id;sensor_type;location;lat;lon;timestamp;pressure;altitude;pressure_sealevel;temperature
70819;BMP280;58439;51.046;13.692;2022-09-09T00:01:40;99740.19;;;15.56
70819;BMP280;58439;51.046;13.692;2022-09-09T00:07:27;99743.38;;;15.58
70819;BMP280;58439;51.046;13.692;2022-09-09T00:13:00;99733.66;;;15.58
70819;BMP280;58439;51.046;13.692;2022-09-09T00:16:12;99742.00;;;15.67
70819;BMP280;58439;51.046;13.692;2022-09-09T00:19:01;99737.72;;;15.78
70819;BMP280;58439;51.046;13.692;2022-09-09T00:21:39;99744.31;;;15.80
70819;BMP280;58439;51.046;13.692;2022-09-09T00:30:26;99734.78;;;15.62
70819;BMP280;58439;51.046;13.692;2022-09-09T00:33:00;99733.56;;;15.53
70819;BMP280;58439;51.046;13.692;2022-09-09T00:35:33;99730.25;;;15.46
70819;BMP280;58439;51.046;13.692;2022-09-09T00:38:14;99732.22;;;15.39
70819;BMP280;58439;51.046;13.692;2022-09-09T00:41:06;99732.50;;;15.26
70819;BMP280;58439;51.046;13.692;2022-09-09T00:43:39;99734.63;;;15.17
70819;BMP280;58439;51.046;13.692;2022-09-09T00:52:22;99728.41;;;14.83
70819;BMP280;58439;51.046;13.692;2022-09-09T00:55:33;99736.88;;;14.85
70819;BMP280;58439;51.046;13.692;2022-09-09T00:58:01;99735.16;;;14.91
70819;BMP280;58439;51.046;13.692;2022-09-09T01:00:40;99738.38;;;14.81
70819;BMP280;58439;51.046;13.692;2022-09-09T01:03:30;99736.66;;;14.75
70819;BMP280;58439;51.046;13.692;2022-09-09T01:06:31;99737.78;;;14.79
70819;BMP280;58439;51.046;13.692;2022-09-09T01:09:29;99743.53;;;14.76
70819;BMP280;58439;51.046;13.692;2022-09-09T01:12:14;99741.44;;;14.78
70819;BMP280;58439;51.046;13.692;2022-09-09T01:15:08;99736.88;;;14.85
70819;BMP280;58439;51.046;13.692;2022-09-09T01:18:04;99733.44;;;14.73
70819;BMP280;58439;51.046;13.692;2022-09-09T01:20:58;99744.66;;;14.80
70819;BMP280;58439;51.046;13.692;2022-09-09T01:24:20;99748.53;;;14.89
70819;BMP280;58439;51.046;13.692;2022-09-09T01:27:06;99739.81;;;15.00
70819;BMP280;58439;51.046;13.692;2022-09-09T01:29:35;99740.84;;;15.11
70819;BMP280;58439;51.046;13.692;2022-09-09T01:32:44;99743.22;;;15.24
70819;BMP280;58439;51.046;13.692;2022-09-09T01:35:56;99750.69;;;15.39
70819;BMP280;58439;51.046;13.692;2022-09-09T01:38:36;99730.75;;;15.31
70819;BMP280;58439;51.046;13.692;2022-09-09T01:41:09;99730.75;;;15.31
70819;BMP280;58439;51.046;13.692;2022-09-09T01:43:48;99737.06;;;15.30
70819;BMP280;58439;51.046;13.692;2022-09-09T01:46:17;99738.31;;;15.28
70819;BMP280;58439;51.046;13.692;2022-09-09T01:48:46;99732.25;;;15.27
70819;BMP280;58439;51.046;13.692;2022-09-09T01:51:18;99739.34;;;15.27
70819;BMP280;58439;51.046;13.692;2022-09-09T01:53:47;99728.03;;;15.26
70819;BMP280;58439;51.046;13.692;2022-09-09T01:56:42;99724.81;;;15.13
70819;BMP280;58439;51.046;13.692;2022-09-09T02:00:05;99723.34;;;14.93
70819;BMP280;58439;51.046;13.692;2022-09-09T02:03:19;99724.16;;;14.70
70819;BMP280;58439;51.046;13.692;2022-09-09T02:06:24;99720.06;;;14.51
70819;BMP280;58439;51.046;13.692;2022-09-09T02:09:00;99719.78;;;14.41
70819;BMP280;58439;51.046;13.692;2022-09-09T02:11:32;99722.75;;;14.33
70819;BMP280;58439;51.046;13.692;2022-09-09T02:14:12;99723.88;;;14.25
70819;BMP280;58439;51.046;13.692;2022-09-09T02:16:54;99729.09;;;14.13
70819;BMP280;58439;51.046;13.692;2022-09-09T02:19:41;99736.50;;;14.05
70819;BMP280;58439;51.046;13.692;2022-09-09T02:22:23;99730.09;;;14.01
70819;BMP280;58439;51.046;13.692;2022-09-09T02:24:52;99727.91;;;13.98
70819;BMP280;58439;51.046;13.692;2022-09-09T02:27:26;99729.38;;;13.94
70819;BMP280;58439;51.046;13.692;2022-09-09T02:29:59;99732.47;;;13.91
70819;BMP280;58439;51.046;13.692;2022-09-09T02:32:42;99724.44;;;13.85
70819;BMP280;58439;51.046;13.692;2022-09-09T02:35:17;99727.94;;;13.79
70819;BMP280;58439;51.046;13.692;2022-09-09T02:37:51;99731.03;;;13.76
70819;BMP280;58439;51.046;13.692;2022-09-09T02:40:22;99730.81;;;13.78
70819;BMP280;58439;51.046;13.692;2022-09-09T02:42:57;99726.78;;;13.75
70819;BMP280;58439;51.046;13.692;2022-09-09T02:45:59;99731.34;;;13.68
70819;BMP280;58439;51.046;13.692;2022-09-09T02:48:51;99733.97;;;13.68
70819;BMP280;58439;51.046;13.692;2022-09-09T02:56:52;99732.50;;;13.54
70819;BMP280;58439;51.046;13.692;2022-09-09T02:59:27;99733.13;;;13.56
70819;BMP280;58439;51.046;13.692;2022-09-09T03:01:54;99740.78;;;13.57
70819;BMP280;58439;51.046;13.692;2022-09-09T03:04:22;99733.75;;;13.51
70819;BMP280;58439;51.046;13.692;2022-09-09T03:06:52;99735.00;;;13.49
70819;BMP280;58439;51.046;13.692;2022-09-09T03:13:37;99739.31;;;13.43
70819;BMP280;58439;51.046;13.692;2022-09-09T03:16:05;99739.47;;;13.48
70819;BMP280;58439;51.046;13.692;2022-09-09T03:18:40;99742.38;;;13.58
70819;BMP280;58439;51.046;13.692;2022-09-09T03:25:08;99732.34;;;13.67
70819;BMP280;58439;51.046;13.692;2022-09-09T03:27:38;99738.28;;;13.63
70819;BMP280;58439;51.046;13.692;2022-09-09T03:30:07;99735.75;;;13.56
70819;BMP280;58439;51.046;13.692;2022-09-09T03:33:08;99737.41;;;13.50
70819;BMP280;58439;51.046;13.692;2022-09-09T03:35:35;99737.81;;;13.47
70819;BMP280;58439;51.046;13.692;2022-09-09T03:38:42;99732.03;;;13.45
70819;BMP280;58439;51.046;13.692;2022-09-09T03:41:10;99730.63;;;13.43
70819;BMP280;58439;51.046;13.692;2022-09-09T03:43:39;99730.97;;;13.46
70819;BMP280;58439;51.046;13.692;2022-09-09T03:46:07;99730.13;;;13.52
70819;BMP280;58439;51.046;13.692;2022-09-09T03:48:36;99725.81;;;13.58
70819;BMP280;58439;51.046;13.692;2022-09-09T03:51:41;99732.22;;;13.62
70819;BMP280;58439;51.046;13.692;2022-09-09T03:54:12;99737.19;;;13.70
70819;BMP280;58439;51.046;13.692;2022-09-09T03:56:39;99736.72;;;13.73
70819;BMP280;58439;51.046;13.692;2022-09-09T03:59:11;99737.28;;;13.75
70819;BMP280;58439;51.046;13.692;2022-09-09T04:01:38;99728.84;;;13.73
70819;BMP280;58439;51.046;13.692;2022-09-09T04:04:07;99735.69;;;13.74
70819;BMP280;58439;51.046;13.692;2022-09-09T04:06:35;99735.78;;;13.68
70819;BMP280;58439;51.046;13.692;2022-09-09T04:09:03;99741.63;;;13.70
70819;BMP280;58439;51.046;13.692;2022-09-09T04:11:31;99736.16;;;13.71
70819;BMP280;58439;51.046;13.692;2022-09-09T04:13:59;99739.34;;;13.73
70819;BMP280;58439;51.046;13.692;2022-09-09T04:16:29;99745.41;;;13.74
70819;BMP280;58439;51.046;13.692;2022-09-09T04:18:57;99749.06;;;13.73
70819;BMP280;58439;51.046;13.692;2022-09-09T04:21:25;99748.25;;;13.72
70819;BMP280;58439;51.046;13.692;2022-09-09T04:23:56;99747.38;;;13.78
70819;BMP280;58439;51.046;13.692;2022-09-09T04:26:25;99738.25;;;13.81
70819;BMP280;58439;51.046;13.692;2022-09-09T04:28:54;99746.38;;;13.91
70819;BMP280;58439;51.046;13.692;2022-09-09T04:31:23;99741.03;;;13.98
70819;BMP280;58439;51.046;13.692;2022-09-09T04:33:56;99744.28;;;14.00
70819;BMP280;58439;51.046;13.692;2022-09-09T04:36:26;99749.44;;;14.06
70819;BMP280;58439;51.046;13.692;2022-09-09T04:38:58;99745.81;;;14.07
70819;BMP280;58439;51.046;13.692;2022-09-09T04:41:25;99749.44;;;14.06
70819;BMP280;58439;51.046;13.692;2022-09-09T04:43:54;99754.28;;;14.09
70819;BMP280;58439;51.046;13.692;2022-09-09T04:46:22;99758.72;;;14.09
70819;BMP280;58439;51.046;13.692;2022-09-09T04:48:50;99755.03;;;14.10
70819;BMP280;58439;51.046;13.692;2022-09-09T04:51:22;99750.94;;;14.14
70819;BMP280;58439;51.046;13.692;2022-09-09T04:53:51;99754.59;;;14.13
70819;BMP280;58439;51.046;13.692;2022-09-09T04:56:21;99755.41;;;14.13
70819;BMP280;58439;51.046;13.692;2022-09-09T04:58:55;99744.88;;;14.13
70819;BMP280;58439;51.046;13.692;2022-09-09T05:01:33;99751.28;;;14.17
70819;BMP280;58439;51.046;13.692;2022-09-09T05:04:03;99756.13;;;14.21
70819;BMP280;58439;51.046;13.692;2022-09-09T05:06:36;99759.34;;;14.34
70819;BMP280;58439;51.046;13.692;2022-09-09T05:09:04;99762.25;;;14.44
70819;BMP280;58439;51.046;13.692;2022-09-09T05:11:33;99759.53;;;14.51
70819;BMP280;58439;51.046;13.692;2022-09-09T05:14:13;99757.91;;;14.62
70819;BMP280;58439;51.046;13.692;2022-09-09T05:16:41;99761.25;;;14.69
70819;BMP280;58439;51.046;13.692;2022-09-09T05:19:11;99760.91;;;14.77
70819;BMP280;58439;51.046;13.692;2022-09-09T05:21:47;99752.66;;;14.85
70819;BMP280;58439;51.046;13.692;2022-09-09T05:24:18;99753.25;;;14.87
70819;BMP280;58439;51.046;13.692;2022-09-09T05:26:49;99762.72;;;14.88
70819;BMP280;58439;51.046;13.692;2022-09-09T05:29:16;99770.53;;;14.95
70819;BMP280;58439;51.046;13.692;2022-09-09T05:31:46;99770.63;;;15.00
70819;BMP280;58439;51.046;13.692;2022-09-09T05:34:17;99780.03;;;15.07
70819;BMP280;58439;51.046;13.692;2022-09-09T05:36:44;99777.28;;;15.26
70819;BMP280;58439;51.046;13.692;2022-09-09T05:39:18;99776.06;;;15.45
70819;BMP280;58439;51.046;13.692;2022-09-09T05:41:45;99778.94;;;15.55
70819;BMP280;58439;51.046;13.692;2022-09-09T05:44:13;99785.44;;;15.64
70819;BMP280;58439;51.046;13.692;2022-09-09T05:46:40;99783.38;;;15.67
70819;BMP280;58439;51.046;13.692;2022-09-09T05:49:07;99780.28;;;15.70
70819;BMP280;58439;51.046;13.692;2022-09-09T05:51:35;99784.84;;;15.74
70819;BMP280;58439;51.046;13.692;2022-09-09T05:54:07;99795.13;;;15.76
70819;BMP280;58439;51.046;13.692;2022-09-09T05:56:39;99796.38;;;15.85
70819;BMP280;58439;51.046;13.692;2022-09-09T05:59:09;99805.25;;;15.95
70819;BMP280;58439;51.046;13.692;2022-09-09T06:01:39;99799.63;;;16.04
70819;BMP280;58439;51.046;13.692;2022-09-09T06:04:17;99801.53;;;16.08
70819;BMP280;58439;51.046;13.692;2022-09-09T06:06:45;99796.25;;;16.08
70819;BMP280;58439;51.046;13.692;2022-09-09T06:09:18;99789.97;;;16.09
70819;BMP280;58439;51.046;13.692;2022-09-09T06:11:45;99786.78;;;16.24
70819;BMP280;58439;51.046;13.692;2022-09-09T06:14:15;99791.78;;;16.37
70819;BMP280;58439;51.046;13.692;2022-09-09T06:16:52;99797.38;;;16.41
70819;BMP280;58439;51.046;13.692;2022-09-09T06:19:31;99798.56;;;16.50
70819;BMP280;58439;51.046;13.692;2022-09-09T06:22:42;99798.56;;;16.50
70819;BMP280;58439;51.046;13.692;2022-09-09T06:25:19;99793.53;;;16.48
70819;BMP280;58439;51.046;13.692;2022-09-09T06:28:12;99796.66;;;16.45
70819;BMP280;58439;51.046;13.692;2022-09-09T06:34:11;99797.75;;;16.49
70819;BMP280;58439;51.046;13.692;2022-09-09T06:36:43;99794.09;;;16.50
70819;BMP280;58439;51.046;13.692;2022-09-09T06:39:13;99796.00;;;16.55
70819;BMP280;58439;51.046;13.692;2022-09-09T06:41:44;99803.34;;;16.70
70819;BMP280;58439;51.046;13.692;2022-09-09T06:44:30;99794.97;;;16.90
70819;BMP280;58439;51.046;13.692;2022-09-09T06:47:04;99798.88;;;17.04
70819;BMP280;58439;51.046;13.692;2022-09-09T06:49:47;99797.00;;;17.26
70819;BMP280;58439;51.046;13.692;2022-09-09T06:52:29;99790.28;;;17.35
70819;BMP280;58439;51.046;13.692;2022-09-09T06:55:06;99788.81;;;17.44
70819;BMP280;58439;51.046;13.692;2022-09-09T06:57:59;99792.47;;;17.65
70819;BMP280;58439;51.046;13.692;2022-09-09T07:00:50;99791.53;;;18.03
70819;BMP280;58439;51.046;13.692;2022-09-09T07:03:29;99794.47;;;18.07
70819;BMP280;58439;51.046;13.692;2022-09-09T07:06:06;99796.78;;;18.30
70819;BMP280;58439;51.046;13.692;2022-09-09T07:08:57;99796.44;;;18.54
70819;BMP280;58439;51.046;13.692;2022-09-09T07:11:56;99793.41;;;18.77
70819;BMP280;58439;51.046;13.692;2022-09-09T07:14:27;99783.53;;;18.67
70819;BMP280;58439;51.046;13.692;2022-09-09T07:16:58;99782.66;;;18.52
70819;BMP280;58439;51.046;13.692;2022-09-09T07:19:31;99791.00;;;18.71
70819;BMP280;58439;51.046;13.692;2022-09-09T07:21:58;99786.88;;;18.95
70819;BMP280;58439;51.046;13.692;2022-09-09T07:24:26;99793.13;;;19.31
70819;BMP280;58439;51.046;13.692;2022-09-09T07:27:00;99797.75;;;19.86
70819;BMP280;58439;51.046;13.692;2022-09-09T07:29:29;99783.97;;;20.15
70819;BMP280;58439;51.046;13.692;2022-09-09T07:31:56;99790.88;;;20.21
70819;BMP280;58439;51.046;13.692;2022-09-09T07:34:29;99791.38;;;20.18
70819;BMP280;58439;51.046;13.692;2022-09-09T07:36:57;99796.72;;;20.13
70819;BMP280;58439;51.046;13.692;2022-09-09T07:39:25;99793.53;;;20.31
70819;BMP280;58439;51.046;13.692;2022-09-09T07:41:54;99792.97;;;20.49
70819;BMP280;58439;51.046;13.692;2022-09-09T07:44:27;99797.75;;;20.63
70819;BMP280;58439;51.046;13.692;2022-09-09T07:47:03;99791.84;;;20.66
70819;BMP280;58439;51.046;13.692;2022-09-09T07:49:38;99797.91;;;21.02
70819;BMP280;58439;51.046;13.692;2022-09-09T07:52:10;99796.56;;;21.53
70819;BMP280;58439;51.046;13.692;2022-09-09T07:54:48;99802.41;;;21.90
70819;BMP280;58439;51.046;13.692;2022-09-09T07:57:19;99797.91;;;22.43
70819;BMP280;58439;51.046;13.692;2022-09-09T07:59:51;99805.50;;;22.83
70819;BMP280;58439;51.046;13.692;2022-09-09T08:02:20;99795.84;;;22.88
70819;BMP280;58439;51.046;13.692;2022-09-09T08:04:50;99800.41;;;22.82
70819;BMP280;58439;51.046;13.692;2022-09-09T08:07:21;99807.06;;;22.84
70819;BMP280;58439;51.046;13.692;2022-09-09T08:09:52;99808.78;;;22.51
70819;BMP280;58439;51.046;13.692;2022-09-09T08:12:26;99805.47;;;22.07
70819;BMP280;58439;51.046;13.692;2022-09-09T08:14:55;99813.56;;;21.97
70819;BMP280;58439;51.046;13.692;2022-09-09T08:17:27;99809.94;;;22.11
70819;BMP280;58439;51.046;13.692;2022-09-09T08:19:57;99806.03;;;22.33
70819;BMP280;58439;51.046;13.692;2022-09-09T08:22:32;99805.97;;;22.38
70819;BMP280;58439;51.046;13.692;2022-09-09T08:25:01;99807.53;;;22.68
70819;BMP280;58439;51.046;13.692;2022-09-09T08:27:43;99804.28;;;23.13
70819;BMP280;58439;51.046;13.692;2022-09-09T08:30:17;99816.00;;;23.36
70819;BMP280;58439;51.046;13.692;2022-09-09T08:32:48;99811.63;;;23.40
70819;BMP280;58439;51.046;13.692;2022-09-09T08:35:21;99817.69;;;23.65
70819;BMP280;58439;51.046;13.692;2022-09-09T08:37:54;99819.41;;;23.74
70819;BMP280;58439;51.046;13.692;2022-09-09T08:40:32;99820.66;;;23.96
70819;BMP280;58439;51.046;13.692;2022-09-09T08:43:03;99821.22;;;23.79
70819;BMP280;58439;51.046;13.692;2022-09-09T08:45:47;99821.44;;;23.64
70819;BMP280;58439;51.046;13.692;2022-09-09T08:48:40;99820.72;;;23.77
70819;BMP280;58439;51.046;13.692;2022-09-09T08:51:12;99823.84;;;23.65
70819;BMP280;58439;51.046;13.692;2022-09-09T08:53:49;99820.53;;;23.73
70819;BMP280;58439;51.046;13.692;2022-09-09T08:56:22;99819.84;;;23.81
70819;BMP280;58439;51.046;13.692;2022-09-09T08:58:59;99821.34;;;23.88
70819;BMP280;58439;51.046;13.692;2022-09-09T09:02:14;99821.03;;;23.57
70819;BMP280;58439;51.046;13.692;2022-09-09T09:04:58;99819.66;;;23.22
70819;BMP280;58439;51.046;13.692;2022-09-09T09:08:01;99815.31;;;23.07
70819;BMP280;58439;51.046;13.692;2022-09-09T09:10:54;99822.06;;;22.99
70819;BMP280;58439;51.046;13.692;2022-09-09T09:17:28;99828.00;;;22.48
70819;BMP280;58439;51.046;13.692;2022-09-09T09:23:39;99840.44;;;21.61
70819;BMP280;58439;51.046;13.692;2022-09-09T09:32:37;99839.69;;;20.81
70819;BMP280;58439;51.046;13.692;2022-09-09T09:37:11;99848.84;;;21.78
70819;BMP280;58439;51.046;13.692;2022-09-09T09:45:43;99841.63;;;24.21
70819;BMP280;58439;51.046;13.692;2022-09-09T09:50:27;99835.00;;;25.59
70819;BMP280;58439;51.046;13.692;2022-09-09T09:54:22;99830.16;;;25.92
70819;BMP280;58439;51.046;13.692;2022-09-09T09:57:49;99826.72;;;26.00
70819;BMP280;58439;51.046;13.692;2022-09-09T10:04:45;99834.00;;;26.00
70819;BMP280;58439;51.046;13.692;2022-09-09T10:07:19;99821.34;;;26.00
70819;BMP280;58439;51.046;13.692;2022-09-09T10:09:55;99823.53;;;25.67
70819;BMP280;58439;51.046;13.692;2022-09-09T10:15:38;99819.78;;;25.46
70819;BMP280;58439;51.046;13.692;2022-09-09T10:18:45;99819.16;;;24.77
70819;BMP280;58439;51.046;13.692;2022-09-09T10:21:25;99821.03;;;24.49
70819;BMP280;58439;51.046;13.692;2022-09-09T10:35:51;99814.50;;;23.81
70819;BMP280;58439;51.046;13.692;2022-09-09T10:38:52;99811.91;;;24.09
70819;BMP280;58439;51.046;13.692;2022-09-09T10:42:09;99805.00;;;24.63
70819;BMP280;58439;51.046;13.692;2022-09-09T10:45:02;99799.00;;;28.03
70819;BMP280;58439;51.046;13.692;2022-09-09T10:48:03;99795.41;;;32.88
70819;BMP280;58439;51.046;13.692;2022-09-09T10:50:51;99793.31;;;31.54
70819;BMP280;58439;51.046;13.692;2022-09-09T10:56:26;99790.06;;;32.72
70819;BMP280;58439;51.046;13.692;2022-09-09T10:59:20;99782.06;;;29.27
70819;BMP280;58439;51.046;13.692;2022-09-09T11:02:03;99777.53;;;26.79
70819;BMP280;58439;51.046;13.692;2022-09-09T11:05:01;99776.53;;;25.16
70819;BMP280;58439;51.046;13.692;2022-09-09T11:07:48;99773.81;;;24.31
70819;BMP280;58439;51.046;13.692;2022-09-09T11:10:30;99775.81;;;23.93
70819;BMP280;58439;51.046;13.692;2022-09-09T11:13:07;99778.59;;;23.88
70819;BMP280;58439;51.046;13.692;2022-09-09T11:15:53;99774.25;;;23.92
70819;BMP280;58439;51.046;13.692;2022-09-09T11:18:23;99776.47;;;24.17
70819;BMP280;58439;51.046;13.692;2022-09-09T11:20:59;99789.75;;;24.49
70819;BMP280;58439;51.046;13.692;2022-09-09T11:23:43;99782.69;;;24.67
70819;BMP280;58439;51.046;13.692;2022-09-09T11:26:39;99774.25;;;24.74
70819;BMP280;58439;51.046;13.692;2022-09-09T11:33:01;99765.63;;;24.63
70819;BMP280;58439;51.046;13.692;2022-09-09T11:35:45;99770.53;;;24.47
70819;BMP280;58439;51.046;13.692;2022-09-09T11:41:07;99764.41;;;24.97
70819;BMP280;58439;51.046;13.692;2022-09-09T11:46:12;99769.31;;;24.40
70819;BMP280;58439;51.046;13.692;2022-09-09T11:48:58;99763.50;;;24.38
70819;BMP280;58439;51.046;13.692;2022-09-09T11:51:29;99770.41;;;24.66
70819;BMP280;58439;51.046;13.692;2022-09-09T11:54:21;99767.06;;;25.86
70819;BMP280;58439;51.046;13.692;2022-09-09T11:56:49;99774.56;;;33.38
70819;BMP280;58439;51.046;13.692;2022-09-09T11:59:21;99768.28;;;36.31
70819;BMP280;58439;51.046;13.692;2022-09-09T12:02:03;99766.94;;;34.73
70819;BMP280;58439;51.046;13.692;2022-09-09T12:04:57;99763.63;;;35.38
70819;BMP280;58439;51.046;13.692;2022-09-09T12:07:39;99761.38;;;32.91
70819;BMP280;58439;51.046;13.692;2022-09-09T12:10:29;99758.06;;;29.71
70819;BMP280;58439;51.046;13.692;2022-09-09T12:13:19;99756.56;;;27.79
70819;BMP280;58439;51.046;13.692;2022-09-09T12:15:54;99755.94;;;26.75
70819;BMP280;58439;51.046;13.692;2022-09-09T12:18:48;99749.47;;;26.02
70819;BMP280;58439;51.046;13.692;2022-09-09T12:27:21;99741.34;;;25.09
70819;BMP280;58439;51.046;13.692;2022-09-09T12:30:01;99734.41;;;24.86
70819;BMP280;58439;51.046;13.692;2022-09-09T12:32:29;99736.69;;;25.68
70819;BMP280;58439;51.046;13.692;2022-09-09T12:35:03;99735.38;;;28.07
70819;BMP280;58439;51.046;13.692;2022-09-09T12:37:56;99731.78;;;31.67
70819;BMP280;58439;51.046;13.692;2022-09-09T12:40:42;99730.56;;;32.37
70819;BMP280;58439;51.046;13.692;2022-09-09T12:43:23;99728.47;;;33.98
70819;BMP280;58439;51.046;13.692;2022-09-09T12:46:09;99727.81;;;36.62
70819;BMP280;58439;51.046;13.692;2022-09-09T12:48:40;99736.78;;;37.99
70819;BMP280;58439;51.046;13.692;2022-09-09T12:51:30;99737.91;;;39.01
70819;BMP280;58439;51.046;13.692;2022-09-09T12:53:59;99731.88;;;37.69
70819;BMP280;58439;51.046;13.692;2022-09-09T12:56:32;99724.06;;;34.16
70819;BMP280;58439;51.046;13.692;2022-09-09T12:59:00;99717.28;;;35.31
70819;BMP280;58439;51.046;13.692;2022-09-09T13:01:32;99720.31;;;32.08
70819;BMP280;58439;51.046;13.692;2022-09-09T13:04:00;99714.25;;;29.86
70819;BMP280;58439;51.046;13.692;2022-09-09T13:07:06;99704.72;;;28.41
70819;BMP280;58439;51.046;13.692;2022-09-09T13:09:35;99698.28;;;27.92
70819;BMP280;58439;51.046;13.692;2022-09-09T13:12:04;99691.91;;;27.29
70819;BMP280;58439;51.046;13.692;2022-09-09T13:14:36;99684.59;;;29.13
70819;BMP280;58439;51.046;13.692;2022-09-09T13:17:06;99691.53;;;28.48
70819;BMP280;58439;51.046;13.692;2022-09-09T13:19:38;99692.22;;;27.66
70819;BMP280;58439;51.046;13.692;2022-09-09T13:25:27;99686.78;;;26.81
70819;BMP280;58439;51.046;13.692;2022-09-09T13:28:21;99683.63;;;26.62
70819;BMP280;58439;51.046;13.692;2022-09-09T13:31:29;99683.00;;;26.65
70819;BMP280;58439;51.046;13.692;2022-09-09T13:33:56;99682.81;;;26.87
70819;BMP280;58439;51.046;13.692;2022-09-09T13:36:33;99686.41;;;27.17
70819;BMP280;58439;51.046;13.692;2022-09-09T13:39:03;99684.84;;;28.13
70819;BMP280;58439;51.046;13.692;2022-09-09T13:41:41;99687.41;;;28.30
70819;BMP280;58439;51.046;13.692;2022-09-09T13:44:24;99698.59;;;28.11
70819;BMP280;58439;51.046;13.692;2022-09-09T13:47:06;99699.56;;;27.86
70819;BMP280;58439;51.046;13.692;2022-09-09T13:49:43;99697.50;;;27.53
70819;BMP280;58439;51.046;13.692;2022-09-09T13:52:31;99696.88;;;27.01
70819;BMP280;58439;51.046;13.692;2022-09-09T13:55:05;99695.31;;;26.57
70819;BMP280;58439;51.046;13.692;2022-09-09T13:57:37;99700.78;;;26.17
70819;BMP280;58439;51.046;13.692;2022-09-09T14:00:09;99700.25;;;25.90
70819;BMP280;58439;51.046;13.692;2022-09-09T14:02:38;99698.75;;;25.83
70819;BMP280;58439;51.046;13.692;2022-09-09T14:05:06;99694.56;;;26.00
70819;BMP280;58439;51.046;13.692;2022-09-09T14:07:33;99691.16;;;26.16
70819;BMP280;58439;51.046;13.692;2022-09-09T14:10:00;99682.94;;;26.30
70819;BMP280;58439;51.046;13.692;2022-09-09T14:12:27;99688.63;;;26.29
70819;BMP280;58439;51.046;13.692;2022-09-09T14:14:55;99690.84;;;26.35
70819;BMP280;58439;51.046;13.692;2022-09-09T14:17:21;99679.19;;;26.48
70819;BMP280;58439;51.046;13.692;2022-09-09T14:19:49;99685.97;;;26.72
70819;BMP280;58439;51.046;13.692;2022-09-09T14:22:16;99681.50;;;27.10
70819;BMP280;58439;51.046;13.692;2022-09-09T14:24:44;99669.50;;;27.54
70819;BMP280;58439;51.046;13.692;2022-09-09T14:27:10;99672.16;;;27.92
70819;BMP280;58439;51.046;13.692;2022-09-09T14:29:38;99665.94;;;28.21
70819;BMP280;58439;51.046;13.692;2022-09-09T14:32:05;99668.03;;;28.57
70819;BMP280;58439;51.046;13.692;2022-09-09T14:34:38;99664.94;;;28.80
70819;BMP280;58439;51.046;13.692;2022-09-09T14:37:06;99668.25;;;28.64
70819;BMP280;58439;51.046;13.692;2022-09-09T14:39:33;99663.56;;;28.61
70819;BMP280;58439;51.046;13.692;2022-09-09T14:42:00;99661.44;;;28.67
70819;BMP280;58439;51.046;13.692;2022-09-09T14:44:29;99654.81;;;30.10
70819;BMP280;58439;51.046;13.692;2022-09-09T14:46:56;99647.97;;;32.47
70819;BMP280;58439;51.046;13.692;2022-09-09T14:49:23;99650.00;;;34.70
70819;BMP280;58439;51.046;13.692;2022-09-09T14:51:50;99652.78;;;35.35
70819;BMP280;58439;51.046;13.692;2022-09-09T14:54:17;99661.94;;;33.47
70819;BMP280;58439;51.046;13.692;2022-09-09T14:56:44;99648.47;;;30.90
70819;BMP280;58439;51.046;13.692;2022-09-09T14:59:11;99653.03;;;29.38
70819;BMP280;58439;51.046;13.692;2022-09-09T15:01:40;99652.75;;;30.75
70819;BMP280;58439;51.046;13.692;2022-09-09T15:04:11;99651.19;;;33.91
70819;BMP280;58439;51.046;13.692;2022-09-09T15:06:42;99665.09;;;33.53
70819;BMP280;58439;51.046;13.692;2022-09-09T15:09:12;99667.56;;;31.29
70819;BMP280;58439;51.046;13.692;2022-09-09T15:11:39;99668.50;;;29.90
70819;BMP280;58439;51.046;13.692;2022-09-09T15:14:08;99659.25;;;28.60
70819;BMP280;58439;51.046;13.692;2022-09-09T15:16:38;99651.69;;;28.21
70819;BMP280;58439;51.046;13.692;2022-09-09T15:19:07;99657.16;;;27.91
70819;BMP280;58439;51.046;13.692;2022-09-09T15:21:39;99653.31;;;28.55
70819;BMP280;58439;51.046;13.692;2022-09-09T15:24:06;99660.09;;;28.40
70819;BMP280;58439;51.046;13.692;2022-09-09T15:26:35;99655.50;;;29.19
70819;BMP280;58439;51.046;13.692;2022-09-09T15:29:05;99666.53;;;30.02
70819;BMP280;58439;51.046;13.692;2022-09-09T15:31:32;99659.13;;;29.99
70819;BMP280;58439;51.046;13.692;2022-09-09T15:34:10;99661.41;;;29.85
70819;BMP280;58439;51.046;13.692;2022-09-09T15:36:43;99660.56;;;29.69
70819;BMP280;58439;51.046;13.692;2022-09-09T15:39:15;99675.06;;;29.52
70819;BMP280;58439;51.046;13.692;2022-09-09T15:41:47;99658.72;;;29.73
70819;BMP280;58439;51.046;13.692;2022-09-09T15:44:15;99669.09;;;29.22
70819;BMP280;58439;51.046;13.692;2022-09-09T15:46:46;99667.13;;;28.32
70819;BMP280;58439;51.046;13.692;2022-09-09T15:49:23;99668.97;;;27.70
70819;BMP280;58439;51.046;13.692;2022-09-09T15:51:59;99659.13;;;27.44
70819;BMP280;58439;51.046;13.692;2022-09-09T15:54:35;99658.19;;;27.40
70819;BMP280;58439;51.046;13.692;2022-09-09T15:57:08;99658.41;;;27.18
70819;BMP280;58439;51.046;13.692;2022-09-09T15:59:38;99655.81;;;26.75
70819;BMP280;58439;51.046;13.692;2022-09-09T16:02:04;99654.69;;;26.24
70819;BMP280;58439;51.046;13.692;2022-09-09T16:04:32;99660.25;;;25.71
70819;BMP280;58439;51.046;13.692;2022-09-09T16:07:04;99663.03;;;25.26
70819;BMP280;58439;51.046;13.692;2022-09-09T16:09:33;99653.88;;;24.96
70819;BMP280;58439;51.046;13.692;2022-09-09T16:12:03;99651.78;;;24.71
70819;BMP280;58439;51.046;13.692;2022-09-09T16:14:37;99652.25;;;24.50
70819;BMP280;58439;51.046;13.692;2022-09-09T16:17:06;99652.88;;;24.34
70819;BMP280;58439;51.046;13.692;2022-09-09T16:19:34;99662.00;;;24.19
70819;BMP280;58439;51.046;13.692;2022-09-09T16:22:01;99666.06;;;24.03
70819;BMP280;58439;51.046;13.692;2022-09-09T16:24:29;99664.88;;;23.81
70819;BMP280;58439;51.046;13.692;2022-09-09T16:26:56;99671.09;;;23.63
70819;BMP280;58439;51.046;13.692;2022-09-09T16:29:24;99675.00;;;23.52
70819;BMP280;58439;51.046;13.692;2022-09-09T16:31:54;99670.66;;;23.42